createdAt,value
2019-05-28T00:01:38.735Z,17.00
2019-05-28T00:04:08.673Z,16.90
2019-05-28T00:06:38.350Z,17.00
2019-05-28T00:09:09.146Z,17.00
2019-05-28T00:11:38.842Z,16.90
2019-05-28T00:14:08.564Z,16.90
2019-05-28T00:16:38.255Z,16.90
2019-05-28T00:19:07.935Z,16.90
2019-05-28T00:21:37.654Z,16.90
2019-05-28T00:24:07.435Z,16.90
2019-05-28T00:26:37.162Z,16.90
2019-05-28T00:29:06.852Z,16.90
2019-05-28T00:31:36.549Z,16.80
2019-05-28T00:34:06.241Z,16.80
2019-05-28T00:36:35.936Z,16.80
2019-05-28T00:39:07.947Z,16.70
2019-05-28T00:41:37.669Z,16.60
2019-05-28T00:44:07.523Z,16.50
2019-05-28T00:46:37.355Z,16.40
2019-05-28T00:49:07.065Z,16.30
2019-05-28T00:51:38.004Z,16.20
2019-05-28T00:54:07.806Z,16.10
2019-05-28T00:56:38.071Z,16.10
2019-05-28T00:59:08.392Z,16.10
2019-05-28T01:01:38.090Z,16.00
2019-05-28T01:04:07.807Z,16.10
2019-05-28T01:06:37.497Z,16.10
2019-05-28T01:09:08.074Z,16.10
2019-05-28T01:11:37.775Z,16.10
2019-05-28T01:14:07.612Z,16.10
2019-05-28T01:16:38.033Z,16.00
2019-05-28T01:19:07.744Z,15.90
2019-05-28T01:21:37.495Z,15.80
2019-05-28T01:24:07.199Z,15.80
2019-05-28T01:26:36.875Z,15.70
2019-05-28T01:29:06.586Z,15.50
2019-05-28T01:31:36.343Z,15.50
2019-05-28T01:34:06.139Z,15.50
2019-05-28T01:36:35.820Z,15.40
2019-05-28T01:39:07.435Z,15.40
2019-05-28T01:41:37.106Z,15.30
2019-05-28T01:44:06.891Z,15.20
2019-05-28T01:46:36.633Z,15.20
2019-05-28T01:49:06.332Z,15.10
2019-05-28T01:51:36.045Z,15.10
2019-05-28T01:54:05.862Z,15.00
2019-05-28T01:56:35.538Z,15.00
2019-05-28T01:59:05.386Z,14.90
2019-05-28T02:01:35.082Z,14.90
2019-05-28T02:04:06.834Z,14.80
2019-05-28T02:06:36.503Z,14.80
2019-05-28T02:09:07.642Z,14.80
2019-05-28T02:11:37.350Z,14.80
2019-05-28T02:14:07.125Z,14.80
2019-05-28T02:16:36.859Z,14.80
2019-05-28T02:19:07.636Z,14.90
2019-05-28T02:21:37.319Z,14.90
2019-05-28T02:24:07.167Z,14.90
2019-05-28T02:26:36.851Z,15.00
2019-05-28T02:29:06.561Z,15.00
2019-05-28T02:31:36.216Z,14.90
2019-05-28T02:34:05.910Z,15.00
2019-05-28T02:36:35.720Z,15.00
2019-05-28T02:39:07.986Z,15.00
2019-05-28T02:41:37.857Z,15.00
2019-05-28T02:44:07.700Z,14.90
2019-05-28T02:46:37.484Z,14.90
2019-05-28T02:49:07.238Z,14.90
2019-05-28T02:51:37.007Z,14.90
2019-05-28T02:54:06.735Z,14.90
2019-05-28T02:56:39.102Z,14.90
2019-05-28T02:59:11.593Z,14.80
2019-05-28T03:01:44.752Z,14.80
2019-05-28T03:04:16.405Z,14.80
2019-05-28T03:06:48.301Z,14.80
2019-05-28T03:09:21.172Z,14.80
2019-05-28T03:11:50.852Z,14.70
2019-05-28T03:14:20.606Z,14.80
2019-05-28T03:16:52.513Z,14.80
2019-05-28T03:19:24.345Z,14.80
2019-05-28T03:21:57.223Z,14.80
2019-05-28T03:24:28.562Z,14.70
2019-05-28T03:27:01.357Z,14.70
2019-05-28T03:29:31.069Z,14.70
2019-05-28T03:32:07.660Z,14.70
2019-05-28T03:34:32.379Z,14.70
2019-05-28T03:37:02.750Z,14.80
2019-05-28T03:39:36.311Z,14.80
2019-05-28T03:42:06.075Z,14.90
2019-05-28T03:44:35.766Z,14.90
2019-05-28T03:47:07.125Z,14.90
2019-05-28T03:49:36.906Z,15.00
2019-05-28T03:52:06.575Z,15.00
2019-05-28T03:54:39.041Z,15.10
2019-05-28T03:57:08.811Z,15.10
2019-05-28T03:59:38.567Z,15.20
2019-05-28T04:02:22.439Z,15.30
2019-05-28T04:04:39.703Z,15.30
2019-05-28T04:07:09.477Z,15.40
2019-05-28T04:09:39.185Z,15.40
2019-05-28T04:12:08.896Z,15.40
2019-05-28T04:14:38.613Z,15.50
2019-05-28T04:17:08.332Z,15.50
2019-05-28T04:19:37.993Z,15.50
2019-05-28T04:22:07.743Z,15.50
2019-05-28T04:24:37.536Z,15.50
2019-05-28T04:27:09.507Z,15.50
2019-05-28T04:29:39.201Z,15.50
2019-05-28T04:32:09.004Z,15.50
2019-05-28T04:34:38.919Z,15.60
2019-05-28T04:37:08.618Z,15.60
2019-05-28T04:39:38.313Z,15.70
2019-05-28T04:42:08.126Z,15.70
2019-05-28T04:44:37.792Z,15.80
2019-05-28T04:47:08.781Z,15.80
2019-05-28T04:49:38.735Z,15.90
2019-05-28T04:52:08.454Z,15.90
2019-05-28T04:54:40.688Z,15.90
2019-05-28T04:57:10.457Z,16.00
2019-05-28T04:59:40.139Z,16.00
2019-05-28T05:02:09.976Z,16.00
2019-05-28T05:04:39.780Z,16.20
2019-05-28T05:07:09.474Z,16.20
2019-05-28T05:09:39.170Z,16.20
2019-05-28T05:12:10.326Z,16.30
2019-05-28T05:14:40.149Z,16.40
2019-05-28T05:17:09.920Z,16.50
2019-05-28T05:19:39.612Z,16.60
2019-05-28T05:22:11.057Z,16.80
2019-05-28T05:24:40.758Z,17.20
2019-05-28T05:27:10.476Z,17.80
2019-05-28T05:29:40.248Z,18.20
2019-05-28T05:32:09.960Z,18.50
2019-05-28T05:34:39.719Z,18.90
2019-05-28T05:37:09.431Z,19.30
2019-05-28T05:39:39.104Z,19.80
2019-05-28T05:42:08.896Z,20.00
2019-05-28T05:44:38.701Z,19.80
2019-05-28T05:47:08.480Z,19.60
2019-05-28T05:49:38.174Z,19.50
2019-05-28T05:52:07.900Z,19.50
2019-05-28T05:54:37.699Z,19.60
2019-05-28T05:57:07.399Z,19.80
2019-05-28T05:59:37.146Z,20.10
2019-05-28T06:02:06.874Z,20.30
2019-05-28T06:04:36.552Z,20.30
2019-05-28T06:07:06.263Z,20.40
2019-05-28T06:09:35.935Z,20.40
2019-05-28T06:12:05.748Z,20.50
2019-05-28T06:14:37.928Z,20.30
2019-05-28T06:17:06.947Z,20.20
2019-05-28T06:19:36.646Z,20.10
2019-05-28T06:22:06.639Z,20.00
2019-05-28T06:24:36.334Z,20.00
2019-05-28T06:27:06.134Z,20.00
2019-05-28T06:29:35.823Z,20.20
2019-05-28T06:32:05.599Z,20.30
2019-05-28T06:34:35.317Z,20.50
2019-05-28T06:37:05.354Z,20.70
2019-05-28T06:39:35.111Z,20.70
2019-05-28T06:42:05.006Z,20.60
2019-05-28T06:44:34.707Z,20.50
2019-05-28T06:47:04.548Z,20.40
2019-05-28T06:49:34.256Z,20.20
2019-05-28T06:52:04.077Z,20.20
2019-05-28T06:54:33.887Z,20.20
2019-05-28T06:57:03.673Z,20.30
2019-05-28T06:59:33.427Z,20.30
2019-05-28T07:02:03.165Z,20.50
2019-05-28T07:04:33.336Z,20.70
2019-05-28T07:07:03.177Z,20.90
2019-05-28T07:09:33.022Z,21.00
2019-05-28T07:12:04.808Z,20.90
2019-05-28T07:14:34.541Z,20.60
2019-05-28T07:17:04.319Z,20.50
2019-05-28T07:19:33.983Z,20.40
2019-05-28T07:22:03.722Z,20.30
2019-05-28T07:24:33.452Z,20.20
2019-05-28T07:27:03.287Z,20.00
2019-05-28T07:29:33.099Z,19.90
2019-05-28T07:32:02.875Z,19.90
2019-05-28T07:34:32.657Z,20.00
2019-05-28T07:37:02.439Z,20.30
2019-05-28T07:39:32.165Z,20.40
2019-05-28T07:42:01.952Z,20.40
2019-05-28T07:44:31.773Z,20.50
2019-05-28T07:47:01.458Z,20.50
2019-05-28T07:49:31.187Z,20.70
2019-05-28T07:52:01.827Z,21.00
2019-05-28T07:54:31.521Z,21.20
2019-05-28T07:57:01.300Z,21.30
2019-05-28T07:59:31.067Z,21.20
2019-05-28T08:02:00.811Z,21.10
2019-05-28T08:04:46.238Z,21.20
2019-05-28T08:07:02.171Z,21.30
2019-05-28T08:09:31.910Z,21.30
2019-05-28T08:12:01.710Z,21.50
2019-05-28T08:14:31.467Z,21.40
2019-05-28T08:17:01.243Z,21.50
2019-05-28T08:19:31.175Z,21.60
2019-05-28T08:22:01.210Z,21.70
2019-05-28T08:24:31.029Z,21.90
2019-05-28T08:27:00.994Z,22.10
2019-05-28T08:29:30.904Z,22.10
2019-05-28T08:32:00.853Z,22.00
2019-05-28T08:34:30.673Z,21.90
2019-05-28T08:37:05.620Z,21.70
2019-05-28T08:39:33.535Z,21.80
2019-05-28T08:42:03.297Z,21.80
2019-05-28T08:44:33.188Z,21.80
2019-05-28T08:47:03.001Z,21.80
2019-05-28T08:49:32.817Z,21.80
2019-05-28T08:52:02.787Z,21.60
2019-05-28T08:54:32.711Z,21.60
2019-05-28T08:57:02.482Z,21.50
2019-05-28T08:59:32.204Z,21.50
2019-05-28T09:02:01.942Z,21.50
2019-05-28T09:04:31.823Z,21.40
2019-05-28T09:07:01.897Z,21.30
2019-05-28T09:09:31.576Z,21.30
2019-05-28T09:12:01.274Z,21.30
2019-05-28T09:14:53.876Z,21.40
2019-05-28T09:17:02.616Z,21.50
2019-05-28T09:19:32.518Z,21.40
2019-05-28T09:22:02.191Z,21.20
2019-05-28T09:24:32.964Z,20.90
2019-05-28T09:27:02.663Z,20.70
2019-05-28T09:29:32.419Z,20.60
2019-05-28T09:32:02.209Z,20.60
2019-05-28T09:34:31.936Z,20.70
2019-05-28T09:37:01.783Z,20.90
2019-05-28T09:39:31.455Z,21.10
2019-05-28T09:42:01.192Z,21.40
2019-05-28T09:44:30.932Z,21.60
2019-05-28T09:47:00.674Z,21.70
2019-05-28T09:49:30.636Z,21.60
2019-05-28T09:52:00.462Z,21.60
2019-05-28T09:54:30.158Z,21.50
2019-05-28T09:56:59.923Z,21.60
2019-05-28T09:59:41.026Z,21.60
2019-05-28T10:02:01.304Z,21.70
2019-05-28T10:04:45.909Z,21.60
2019-05-28T10:07:02.656Z,21.80
2019-05-28T10:09:32.608Z,21.90
2019-05-28T10:12:02.396Z,22.00
2019-05-28T10:14:32.205Z,21.70
2019-05-28T10:17:02.026Z,21.60
2019-05-28T10:19:31.753Z,21.70
2019-05-28T10:22:01.458Z,21.90
2019-05-28T10:24:31.179Z,22.20
2019-05-28T10:27:00.955Z,22.30
2019-05-28T10:29:31.652Z,22.10
2019-05-28T10:32:01.388Z,22.10
2019-05-28T10:34:31.252Z,22.10
2019-05-28T10:37:01.004Z,22.10
2019-05-28T10:39:30.779Z,22.10
2019-05-28T10:42:00.558Z,22.10
2019-05-28T10:44:30.424Z,22.10
2019-05-28T10:47:00.136Z,22.30
2019-05-28T10:49:29.854Z,22.60
2019-05-28T10:51:59.569Z,22.80
2019-05-28T10:54:29.256Z,23.00
2019-05-28T10:56:58.977Z,22.90
2019-05-28T10:59:28.728Z,22.60
2019-05-28T11:01:58.472Z,22.50
2019-05-28T11:04:28.201Z,22.30
2019-05-28T11:06:57.957Z,22.40
2019-05-28T11:09:27.731Z,22.20
2019-05-28T11:11:57.430Z,22.30
2019-05-28T11:14:27.211Z,22.50
2019-05-28T11:16:57.014Z,22.80
2019-05-28T11:19:26.796Z,22.90
2019-05-28T11:21:56.440Z,22.90
2019-05-28T11:24:27.214Z,22.70
2019-05-28T11:26:56.894Z,22.40
2019-05-28T11:29:26.634Z,22.40
2019-05-28T11:31:56.347Z,22.30
2019-05-28T11:34:26.032Z,22.20
2019-05-28T11:37:08.787Z,22.40
2019-05-28T11:39:27.231Z,22.40
2019-05-28T11:41:57.017Z,22.40
2019-05-28T11:44:26.779Z,22.40
2019-05-28T11:46:58.937Z,22.30
2019-05-28T11:49:28.982Z,22.30
2019-05-28T11:51:58.801Z,22.20
2019-05-28T11:54:28.704Z,22.20
2019-05-28T11:56:58.544Z,22.20
2019-05-28T11:59:28.228Z,22.20
2019-05-28T12:01:57.972Z,22.10
2019-05-28T12:04:28.708Z,22.20
2019-05-28T12:06:58.488Z,21.90
2019-05-28T12:09:28.229Z,22.10
2019-05-28T12:11:58.015Z,22.20
2019-05-28T12:14:27.808Z,22.30
2019-05-28T12:16:57.719Z,22.30
2019-05-28T12:19:27.514Z,22.40
2019-05-28T12:21:57.429Z,22.50
2019-05-28T12:24:28.746Z,22.50
2019-05-28T12:26:59.267Z,22.30
2019-05-28T12:29:29.285Z,22.30
2019-05-28T12:31:59.592Z,22.20
2019-05-28T12:34:29.732Z,22.10
2019-05-28T12:36:59.901Z,21.80
2019-05-28T12:39:29.894Z,21.70
2019-05-28T12:42:03.326Z,21.90
2019-05-28T12:44:41.545Z,22.00
2019-05-28T12:47:03.207Z,22.30
2019-05-28T12:49:33.399Z,22.50
2019-05-28T12:52:03.479Z,22.60
2019-05-28T12:54:35.091Z,22.80
2019-05-28T12:57:05.463Z,22.90
2019-05-28T12:59:35.217Z,23.00
2019-05-28T13:02:05.146Z,23.00
2019-05-28T13:04:35.872Z,22.90
2019-05-28T13:07:05.802Z,22.90
2019-05-28T13:09:35.532Z,22.50
2019-05-28T13:12:05.289Z,22.40
2019-05-28T13:14:35.034Z,22.40
2019-05-28T13:17:04.887Z,22.40
2019-05-28T13:19:34.615Z,22.80
2019-05-28T13:22:07.308Z,23.30
2019-05-28T13:24:36.989Z,23.40
2019-05-28T13:27:17.504Z,23.20
2019-05-28T13:29:38.118Z,23.00
2019-05-28T13:32:08.817Z,22.80
2019-05-28T13:34:38.746Z,22.80
2019-05-28T13:37:08.539Z,22.70
2019-05-28T13:39:38.287Z,22.60
2019-05-28T13:42:08.054Z,22.60
2019-05-28T13:44:37.749Z,22.40
2019-05-28T13:47:07.462Z,22.30
2019-05-28T13:49:37.227Z,22.10
2019-05-28T13:52:12.084Z,22.00
2019-05-28T13:54:38.383Z,22.10
2019-05-28T13:57:08.466Z,22.40
2019-05-28T13:59:38.149Z,22.50
2019-05-28T14:02:07.869Z,22.80
2019-05-28T14:04:37.663Z,23.10
2019-05-28T14:07:07.412Z,23.10
2019-05-28T14:09:37.198Z,22.90
2019-05-28T14:12:07.183Z,22.80
2019-05-28T14:14:36.955Z,22.80
2019-05-28T14:17:06.768Z,22.80
2019-05-28T14:19:36.542Z,22.90
2019-05-28T14:22:06.384Z,22.90
2019-05-28T14:24:36.199Z,23.00
2019-05-28T14:27:06.063Z,23.10
2019-05-28T14:29:35.783Z,23.00
2019-05-28T14:32:05.475Z,23.00
2019-05-28T14:34:35.175Z,23.20
2019-05-28T14:37:07.399Z,23.00
2019-05-28T14:39:40.930Z,22.60
2019-05-28T14:42:08.565Z,22.20
2019-05-28T14:44:41.047Z,22.10
2019-05-28T14:47:09.934Z,22.20
2019-05-28T14:49:42.420Z,22.30
2019-05-28T14:52:13.614Z,22.20
2019-05-28T14:54:43.472Z,22.10
2019-05-28T14:57:13.246Z,22.00
2019-05-28T14:59:42.954Z,21.90
2019-05-28T15:02:12.682Z,21.80
2019-05-28T15:04:43.963Z,21.60
2019-05-28T15:07:14.714Z,21.40
2019-05-28T15:09:44.461Z,21.10
2019-05-28T15:12:14.215Z,21.10
2019-05-28T15:14:43.961Z,21.10
2019-05-28T15:17:13.700Z,21.10
2019-05-28T15:19:43.472Z,21.10
2019-05-28T15:22:13.263Z,21.20
2019-05-28T15:24:43.097Z,21.10
2019-05-28T15:27:12.789Z,21.10
2019-05-28T15:29:42.617Z,21.30
2019-05-28T15:32:12.399Z,21.30
2019-05-28T15:34:42.138Z,21.30
2019-05-28T15:37:11.902Z,21.20
2019-05-28T15:39:41.729Z,21.20
2019-05-28T15:42:19.882Z,21.10
2019-05-28T15:44:42.936Z,20.90
2019-05-28T15:47:13.730Z,20.80
2019-05-28T15:49:43.499Z,20.70
2019-05-28T15:52:13.220Z,20.50
2019-05-28T15:54:43.040Z,20.40
2019-05-28T15:57:12.887Z,20.30
2019-05-28T15:59:42.685Z,20.30
2019-05-28T16:02:12.346Z,20.30
2019-05-28T16:04:42.079Z,20.20
2019-05-28T16:07:11.823Z,20.10
2019-05-28T16:09:55.100Z,20.10
2019-05-28T16:12:12.989Z,19.90
2019-05-28T16:14:42.759Z,19.70
2019-05-28T16:17:13.779Z,19.70
2019-05-28T16:19:43.545Z,19.80
2019-05-28T16:22:13.459Z,19.90
2019-05-28T16:24:44.199Z,19.90
2019-05-28T16:27:13.908Z,19.90
2019-05-28T16:29:43.626Z,20.00
2019-05-28T16:32:13.384Z,20.00
2019-05-28T16:34:43.105Z,19.90
2019-05-28T16:37:12.901Z,19.90
2019-05-28T16:39:42.604Z,20.00
2019-05-28T16:42:12.303Z,20.10
2019-05-28T16:44:42.755Z,20.10
2019-05-28T16:47:18.639Z,20.00
2019-05-28T16:49:43.917Z,19.90
2019-05-28T16:52:13.634Z,19.80
2019-05-28T16:54:43.402Z,19.80
2019-05-28T16:57:13.141Z,19.70
2019-05-28T16:59:43.929Z,19.70
2019-05-28T17:02:13.656Z,19.60
2019-05-28T17:04:43.506Z,19.50
2019-05-28T17:07:13.419Z,19.30
2019-05-28T17:09:43.217Z,19.30
2019-05-28T17:12:13.067Z,19.20
2019-05-28T17:14:43.901Z,19.10
2019-05-28T17:17:13.769Z,19.10
2019-05-28T17:19:44.859Z,19.10
2019-05-28T17:22:15.795Z,19.10
2019-05-28T17:24:45.841Z,19.00
2019-05-28T17:27:15.782Z,18.90
2019-05-28T17:29:45.453Z,18.80
2019-05-28T17:32:16.246Z,18.80
2019-05-28T17:34:45.958Z,18.90
2019-05-28T17:37:15.755Z,18.80
2019-05-28T17:39:47.365Z,18.70
2019-05-28T17:42:17.133Z,18.70
2019-05-28T17:44:47.377Z,18.50
2019-05-28T17:47:17.278Z,18.50
2019-05-28T17:49:47.072Z,18.50
2019-05-28T17:52:16.842Z,18.50
2019-05-28T17:54:46.604Z,18.30
2019-05-28T17:57:16.349Z,18.10
2019-05-28T17:59:46.081Z,18.10
2019-05-28T18:02:15.989Z,18.00
2019-05-28T18:04:45.881Z,18.00
2019-05-28T18:07:15.720Z,17.70
2019-05-28T18:09:46.386Z,17.80
2019-05-28T18:12:16.171Z,17.80
2019-05-28T18:14:45.961Z,17.80
2019-05-28T18:17:15.702Z,17.80
2019-05-28T18:19:45.399Z,17.70
2019-05-28T18:22:15.122Z,17.70
2019-05-28T18:24:44.838Z,17.80
2019-05-28T18:27:14.583Z,17.80
2019-05-28T18:29:44.521Z,17.90
2019-05-28T18:32:14.338Z,17.90
2019-05-28T18:34:44.045Z,17.90
2019-05-28T18:37:13.813Z,17.80
2019-05-28T18:39:43.551Z,17.70
2019-05-28T18:42:13.423Z,17.60
2019-05-28T18:44:43.191Z,17.60
2019-05-28T18:47:13.957Z,17.50
2019-05-28T18:49:43.667Z,17.40
2019-05-28T18:52:13.406Z,17.20
2019-05-28T18:54:43.266Z,17.10
2019-05-28T18:57:13.090Z,17.00
2019-05-28T18:59:42.896Z,16.90
2019-05-28T19:02:12.767Z,16.80
2019-05-28T19:04:42.530Z,16.70
2019-05-28T19:07:12.298Z,16.70
2019-05-28T19:09:41.991Z,16.50
2019-05-28T19:12:11.758Z,16.40
2019-05-28T19:14:41.698Z,16.40
2019-05-28T19:17:11.713Z,16.50
2019-05-28T19:19:42.038Z,16.40
2019-05-28T19:22:11.927Z,16.30
2019-05-28T19:24:41.595Z,16.20
2019-05-28T19:27:11.389Z,16.10
2019-05-28T19:29:41.135Z,16.10
2019-05-28T19:32:11.769Z,16.00
2019-05-28T19:34:41.729Z,15.90
2019-05-28T19:37:11.986Z,15.90
2019-05-28T19:39:42.502Z,15.80
2019-05-28T19:42:12.416Z,15.70
2019-05-28T19:44:42.140Z,15.70
2019-05-28T19:47:12.094Z,15.60
2019-05-28T19:49:42.582Z,15.60
2019-05-28T19:52:12.281Z,15.50
2019-05-28T19:54:41.979Z,15.30
2019-05-28T19:57:11.691Z,15.20
2019-05-28T19:59:41.475Z,15.20
2019-05-28T20:02:11.479Z,15.20
2019-05-28T20:04:41.254Z,15.20
2019-05-28T20:07:11.128Z,15.20
2019-05-28T20:09:40.825Z,15.10
2019-05-28T20:12:12.844Z,15.00
2019-05-28T20:14:42.108Z,15.00
2019-05-28T20:17:13.189Z,14.90
2019-05-28T20:19:42.946Z,14.70
2019-05-28T20:22:12.751Z,14.70
2019-05-28T20:24:42.599Z,14.70
2019-05-28T20:27:12.286Z,14.70
2019-05-28T20:29:42.056Z,14.70
2019-05-28T20:32:11.808Z,14.70
2019-05-28T20:34:41.678Z,14.60
2019-05-28T20:37:11.474Z,14.60
2019-05-28T20:39:41.461Z,14.60
2019-05-28T20:42:26.196Z,14.50
2019-05-28T20:44:42.924Z,14.50
2019-05-28T20:47:12.684Z,14.30
2019-05-28T20:49:42.505Z,14.20
2019-05-28T20:52:12.232Z,14.20
2019-05-28T20:54:42.097Z,14.20
2019-05-28T20:57:12.001Z,14.10
2019-05-28T20:59:41.987Z,14.10
2019-05-28T21:02:11.804Z,14.00
2019-05-28T21:04:41.843Z,14.00
2019-05-28T21:07:11.678Z,13.90
2019-05-28T21:09:41.650Z,13.90
2019-05-28T21:12:11.495Z,13.80
2019-05-28T21:14:41.315Z,13.80
2019-05-28T21:17:11.101Z,13.80
2019-05-28T21:19:41.004Z,13.70
2019-05-28T21:22:25.835Z,13.70
2019-05-28T21:24:43.553Z,13.80
2019-05-28T21:27:13.442Z,13.80
2019-05-28T21:29:43.142Z,13.70
2019-05-28T21:32:13.073Z,13.70
2019-05-28T21:34:42.905Z,13.60
2019-05-28T21:37:12.814Z,13.50
2019-05-28T21:39:42.838Z,13.50
2019-05-28T21:42:15.400Z,13.40
2019-05-28T21:44:45.107Z,13.40
2019-05-28T21:47:14.927Z,13.30
2019-05-28T21:49:45.188Z,13.30
2019-05-28T21:52:17.476Z,13.20
2019-05-28T21:54:47.352Z,13.20
2019-05-28T21:57:17.095Z,13.20
2019-05-28T21:59:50.386Z,13.20
2019-05-28T22:02:25.822Z,13.20
2019-05-28T22:04:55.596Z,13.20
2019-05-28T22:07:26.212Z,13.20
2019-05-28T22:09:55.950Z,13.10
2019-05-28T22:12:26.705Z,13.10
2019-05-28T22:14:56.426Z,13.10
2019-05-28T22:17:26.286Z,13.00
2019-05-28T22:19:56.315Z,13.00
2019-05-28T22:22:26.112Z,13.10
2019-05-28T22:24:56.332Z,13.00
2019-05-28T22:27:27.231Z,12.90
2019-05-28T22:29:57.106Z,12.90
2019-05-28T22:32:26.987Z,12.90
2019-05-28T22:34:57.722Z,12.80
2019-05-28T22:37:27.886Z,12.80
2019-05-28T22:39:57.638Z,12.70
2019-05-28T22:42:27.362Z,12.80
2019-05-28T22:44:57.147Z,12.70
2019-05-28T22:47:26.817Z,12.80
2019-05-28T22:50:14.901Z,12.70
2019-05-28T22:52:27.933Z,12.70
2019-05-28T22:54:57.787Z,12.70
2019-05-28T22:57:27.611Z,12.70
2019-05-28T22:59:58.307Z,12.70
2019-05-28T23:02:28.309Z,12.50
2019-05-28T23:04:58.878Z,12.50
2019-05-28T23:07:28.806Z,12.50
2019-05-28T23:09:59.489Z,12.60
2019-05-28T23:12:29.387Z,12.50
2019-05-28T23:14:59.765Z,12.50
2019-05-28T23:17:29.704Z,12.50
2019-05-28T23:20:00.542Z,12.50
2019-05-28T23:22:30.538Z,12.40
2019-05-28T23:25:01.116Z,12.40
2019-05-28T23:27:31.546Z,12.40
2019-05-28T23:30:06.890Z,12.40
2019-05-28T23:32:32.855Z,12.40
2019-05-28T23:35:02.572Z,12.30
2019-05-28T23:37:32.263Z,12.30
2019-05-28T23:40:03.059Z,12.30
2019-05-28T23:42:32.879Z,12.30
2019-05-28T23:45:03.541Z,12.30
2019-05-28T23:47:33.601Z,12.30
2019-05-28T23:50:04.299Z,12.30
2019-05-28T23:52:34.072Z,12.20
2019-05-28T23:55:38.791Z,12.20
2019-05-28T23:58:14.276Z,12.20
